createdAt,value
2018-08-25T00:04:30.122Z,2.90
2018-08-25T00:09:33.451Z,2.33
2018-08-25T00:14:36.784Z,2.10
2018-08-25T00:19:40.089Z,2.93
2018-08-25T00:24:44.481Z,2.70
2018-08-25T00:29:47.729Z,3.00
2018-08-25T00:34:50.970Z,2.93
2018-08-25T00:39:54.190Z,2.93
2018-08-25T00:44:57.390Z,2.80
2018-08-25T00:50:00.710Z,2.53
2018-08-25T00:55:04.185Z,2.63
2018-08-25T01:00:07.411Z,2.70
2018-08-25T01:05:10.683Z,3.00
2018-08-25T01:10:13.925Z,2.77
2018-08-25T01:15:17.105Z,3.03
2018-08-25T01:20:20.510Z,2.93
2018-08-25T01:25:23.717Z,2.70
2018-08-25T01:30:26.903Z,2.43
2018-08-25T01:35:30.444Z,2.77
2018-08-25T01:40:33.654Z,2.30
2018-08-25T01:45:36.841Z,2.73
2018-08-25T01:50:40.079Z,2.23
2018-08-25T01:55:43.660Z,2.90
2018-08-25T02:00:46.861Z,3.03
2018-08-25T02:05:50.335Z,3.03
2018-08-25T02:10:53.546Z,2.57
2018-08-25T02:15:57.218Z,2.60
2018-08-25T02:21:00.409Z,2.57
2018-08-25T02:26:03.584Z,2.77
2018-08-25T02:31:06.777Z,2.37
2018-08-25T02:36:09.988Z,2.30
2018-08-25T02:41:13.154Z,2.23
2018-08-25T02:46:16.423Z,2.73
2018-08-25T02:51:19.739Z,2.60
2018-08-25T02:56:23.137Z,2.53
2018-08-25T03:01:26.404Z,2.63
2018-08-25T03:06:29.916Z,2.60
2018-08-25T03:11:33.107Z,2.40
2018-08-25T03:16:36.828Z,2.03
2018-08-25T03:21:40.069Z,2.53
2018-08-25T03:26:43.338Z,2.20
2018-08-25T03:31:46.557Z,2.10
2018-08-25T03:36:49.790Z,2.80
2018-08-25T03:41:53.078Z,2.53
2018-08-25T03:46:56.294Z,2.40
2018-08-25T03:51:59.516Z,2.20
2018-08-25T03:57:02.898Z,2.10
2018-08-25T04:02:06.208Z,2.40
2018-08-25T04:07:09.882Z,2.10
2018-08-25T04:12:13.182Z,1.63
2018-08-25T04:17:16.443Z,2.10
2018-08-25T04:22:20.022Z,2.47
2018-08-25T04:27:23.223Z,2.03
2018-08-25T04:32:26.828Z,2.43
2018-08-25T04:37:31.562Z,2.00
2018-08-25T04:42:34.834Z,1.90
2018-08-25T04:47:38.081Z,2.93
2018-08-25T04:52:41.866Z,2.03
2018-08-25T04:57:45.085Z,1.63
2018-08-25T05:02:48.305Z,2.00
2018-08-25T05:07:51.580Z,2.10
2018-08-25T05:12:54.948Z,2.13
2018-08-25T05:17:58.219Z,2.70
2018-08-25T05:23:01.396Z,1.90
2018-08-25T05:28:05.420Z,2.33
2018-08-25T05:33:08.737Z,2.13
2018-08-25T05:38:12.318Z,2.83
2018-08-25T05:43:16.133Z,2.30
2018-08-25T05:48:19.380Z,2.70
2018-08-25T05:53:22.597Z,2.90
2018-08-25T05:58:26.235Z,3.40
2018-08-25T06:03:29.500Z,2.63
2018-08-25T06:08:32.935Z,2.60
2018-08-25T06:13:36.402Z,3.40
2018-08-25T06:18:39.594Z,3.67
2018-08-25T06:23:43.013Z,3.47
2018-08-25T06:28:47.417Z,3.30
2018-08-25T06:33:50.737Z,3.73
2018-08-25T06:38:53.983Z,3.97
2018-08-25T06:43:57.211Z,4.23
2018-08-25T06:49:00.971Z,4.17
2018-08-25T06:54:04.989Z,4.53
2018-08-25T06:59:08.460Z,4.20
2018-08-25T07:04:11.738Z,4.70
2018-08-25T07:09:14.983Z,4.83
2018-08-25T07:14:18.350Z,4.27
2018-08-25T07:19:21.674Z,5.40
2018-08-25T07:24:24.878Z,5.20
2018-08-25T07:29:28.195Z,4.40
2018-08-25T07:34:31.440Z,4.60
2018-08-25T07:39:34.975Z,5.00
2018-08-25T07:44:38.157Z,5.63
2018-08-25T07:49:41.596Z,5.87
2018-08-25T07:54:45.721Z,5.97
2018-08-25T07:59:49.115Z,5.67
2018-08-25T08:04:52.847Z,4.50
2018-08-25T08:09:56.665Z,4.10
2018-08-25T08:15:00.634Z,4.60
2018-08-25T08:20:04.357Z,3.80
2018-08-25T08:25:07.834Z,4.30
2018-08-25T08:30:11.377Z,3.80
2018-08-25T08:35:14.964Z,4.93
2018-08-25T08:40:18.837Z,4.43
2018-08-25T08:45:22.475Z,4.47
2018-08-25T08:50:26.038Z,4.90
2018-08-25T08:55:29.431Z,4.43
2018-08-25T09:00:32.859Z,5.03
2018-08-25T09:05:36.484Z,4.20
2018-08-25T09:10:39.701Z,4.20
2018-08-25T09:15:43.370Z,4.90
2018-08-25T09:20:46.621Z,4.77
2018-08-25T09:25:49.919Z,4.07
2018-08-25T09:30:53.768Z,2.97
2018-08-25T09:35:57.267Z,3.97
2018-08-25T09:41:01.158Z,3.80
2018-08-25T09:46:04.838Z,3.90
2018-08-25T09:51:08.518Z,3.50
2018-08-25T09:56:11.853Z,3.60
2018-08-25T10:01:20.468Z,3.23
2018-08-25T10:06:24.134Z,3.37
2018-08-25T10:11:27.500Z,3.70
2018-08-25T10:16:31.129Z,3.50
2018-08-25T10:21:35.990Z,3.50
2018-08-25T10:26:39.469Z,3.43
2018-08-25T10:31:42.970Z,3.40
2018-08-25T10:36:46.204Z,3.50
2018-08-25T10:41:49.835Z,3.50
2018-08-25T10:46:54.226Z,3.07
2018-08-25T10:51:57.741Z,4.03
2018-08-25T10:57:01.941Z,3.50
2018-08-25T11:02:05.487Z,3.90
2018-08-25T11:07:09.225Z,4.20
2018-08-25T11:12:13.026Z,4.07
2018-08-25T11:17:16.859Z,4.87
2018-08-25T11:22:20.203Z,3.33
2018-08-25T11:27:30.556Z,3.13
2018-08-25T11:32:34.055Z,3.60
2018-08-25T11:37:37.450Z,3.07
2018-08-25T11:42:41.103Z,3.43
2018-08-25T11:47:44.524Z,2.33
2018-08-25T11:52:47.968Z,2.90
2018-08-25T11:57:51.525Z,2.57
2018-08-25T12:02:56.147Z,2.90
2018-08-25T12:08:00.122Z,2.70
2018-08-25T12:13:03.762Z,2.57
2018-08-25T12:18:07.804Z,2.73
2018-08-25T12:23:11.166Z,2.83
2018-08-25T12:28:14.692Z,2.20
2018-08-25T12:33:18.856Z,2.40
2018-08-25T12:38:22.168Z,2.50
2018-08-25T12:43:25.624Z,3.20
2018-08-25T12:48:29.098Z,2.30
2018-08-25T12:53:32.709Z,2.53
2018-08-25T12:58:36.098Z,2.37
2018-08-25T13:03:39.845Z,2.90
2018-08-25T13:08:44.134Z,2.47
2018-08-25T13:13:47.925Z,2.20
2018-08-25T13:18:51.684Z,2.23
2018-08-25T13:23:55.840Z,2.23
2018-08-25T13:28:59.494Z,2.63
2018-08-25T13:34:03.078Z,2.90
2018-08-25T13:39:08.936Z,2.37
2018-08-25T13:44:13.190Z,2.60
2018-08-25T13:49:16.404Z,2.87
2018-08-25T13:54:19.692Z,3.60
2018-08-25T13:59:22.939Z,2.93
2018-08-25T14:04:26.373Z,2.53
2018-08-25T14:09:29.704Z,2.17
2018-08-25T14:14:33.162Z,2.00
2018-08-25T14:19:36.879Z,1.90
2018-08-25T14:24:40.516Z,2.10
2018-08-25T14:29:44.879Z,2.00
2018-08-25T14:34:48.144Z,2.50
2018-08-25T14:39:52.202Z,2.30
2018-08-25T14:44:55.583Z,2.03
2018-08-25T14:49:58.826Z,2.40
2018-08-25T14:55:02.390Z,2.17
2018-08-25T15:00:06.153Z,2.20
2018-08-25T15:05:09.387Z,1.87
2018-08-25T15:10:12.704Z,2.03
2018-08-25T15:15:16.309Z,1.97
2018-08-25T15:20:20.446Z,1.57
2018-08-25T15:25:23.710Z,1.40
2018-08-25T15:30:27.589Z,1.50
2018-08-25T15:35:31.546Z,2.07
2018-08-25T15:40:34.989Z,1.80
2018-08-25T15:45:38.547Z,1.90
2018-08-25T15:50:43.227Z,1.43
2018-08-25T15:55:46.682Z,1.50
2018-08-25T16:00:50.401Z,1.70
2018-08-25T16:05:54.085Z,1.63
2018-08-25T16:10:58.307Z,1.83
2018-08-25T16:16:02.544Z,1.43
2018-08-25T16:21:06.223Z,1.63
2018-08-25T16:26:11.188Z,1.43
2018-08-25T16:31:15.609Z,1.80
2018-08-25T16:36:19.058Z,1.33
2018-08-25T16:41:23.508Z,1.30
2018-08-25T16:46:27.128Z,1.60
2018-08-25T16:51:31.513Z,1.20
2018-08-25T16:56:35.211Z,1.40
2018-08-25T17:01:38.457Z,1.10
2018-08-25T17:06:42.074Z,1.10
2018-08-25T17:11:45.370Z,0.90
2018-08-25T17:16:49.094Z,1.50
2018-08-25T17:21:52.362Z,1.60
2018-08-25T17:26:55.960Z,1.27
2018-08-25T17:31:59.596Z,1.30
2018-08-25T17:37:03.406Z,1.83
2018-08-25T17:42:06.930Z,1.80
2018-08-25T17:47:10.487Z,1.60
2018-08-25T17:52:13.935Z,1.83
2018-08-25T17:57:17.304Z,1.47
2018-08-25T18:02:20.996Z,2.00
2018-08-25T18:07:24.471Z,1.63
2018-08-25T18:12:28.722Z,1.50
2018-08-25T18:17:32.158Z,1.70
2018-08-25T18:22:35.505Z,1.60
2018-08-25T18:27:39.558Z,1.67
2018-08-25T18:32:42.834Z,1.67
2018-08-25T18:37:46.410Z,2.13
2018-08-25T18:42:49.966Z,1.93
2018-08-25T18:47:53.410Z,2.20
2018-08-25T18:52:57.058Z,2.07
2018-08-25T18:58:01.429Z,1.83
2018-08-25T19:03:05.176Z,1.73
2018-08-25T19:08:08.746Z,2.40
2018-08-25T19:13:13.228Z,2.27
2018-08-25T19:18:16.777Z,1.80
2018-08-25T19:23:21.039Z,1.93
2018-08-25T19:28:31.212Z,1.77
2018-08-25T19:33:34.662Z,2.30
2018-08-25T19:38:38.815Z,1.90
2018-08-25T19:43:44.766Z,1.90
2018-08-25T19:48:48.609Z,2.30
2018-08-25T19:53:52.596Z,1.80
2018-08-25T19:58:56.713Z,1.67
2018-08-25T20:04:01.303Z,1.50
2018-08-25T20:09:06.613Z,1.90
2018-08-25T20:14:10.521Z,1.70
2018-08-25T20:19:14.430Z,2.00
2018-08-25T20:24:17.821Z,1.93
2018-08-25T20:29:21.274Z,2.07
2018-08-25T20:34:25.956Z,2.07
2018-08-25T20:39:29.454Z,2.60
2018-08-25T20:44:35.135Z,2.70
2018-08-25T20:49:38.735Z,2.80
2018-08-25T20:54:42.301Z,2.70
2018-08-25T20:59:45.820Z,3.27
2018-08-25T21:04:49.942Z,2.80
2018-08-25T21:09:53.879Z,3.37
2018-08-25T21:14:58.113Z,4.43
2018-08-25T21:20:02.431Z,3.80
2018-08-25T21:25:06.991Z,3.77
2018-08-25T21:30:11.134Z,3.50
2018-08-25T21:35:15.337Z,3.20
2018-08-25T21:40:18.915Z,3.50
2018-08-25T21:45:22.206Z,2.87
2018-08-25T21:50:25.558Z,3.10
2018-08-25T21:55:29.089Z,3.67
2018-08-25T22:00:32.566Z,3.10
2018-08-25T22:05:36.435Z,2.80
2018-08-25T22:10:39.880Z,2.80
2018-08-25T22:15:43.687Z,2.97
2018-08-25T22:20:46.995Z,3.50
2018-08-25T22:25:51.260Z,3.33
2018-08-25T22:30:54.731Z,2.93
2018-08-25T22:35:57.987Z,2.83
2018-08-25T22:41:01.265Z,2.70
2018-08-25T22:46:04.845Z,2.70
2018-08-25T22:51:08.456Z,1.93
2018-08-25T22:56:11.699Z,2.33
2018-08-25T23:01:14.963Z,2.50
2018-08-25T23:06:18.316Z,2.47
2018-08-25T23:11:21.524Z,2.10
2018-08-25T23:16:25.011Z,2.07
2018-08-25T23:21:28.319Z,1.83
2018-08-25T23:26:32.411Z,2.10
2018-08-25T23:31:35.660Z,2.43
2018-08-25T23:36:39.116Z,2.33
2018-08-25T23:41:42.709Z,3.00
2018-08-25T23:46:46.204Z,2.03
2018-08-25T23:51:50.207Z,2.23
2018-08-25T23:56:53.668Z,2.50
